createdAt,value
2023-05-23T00:00:01.449Z,42.08
2023-05-23T00:05:07.368Z,38.67
2023-05-23T00:10:09.593Z,38.35
2023-05-23T00:15:12.222Z,39.42
2023-05-23T00:20:13.970Z,38.83
2023-05-23T00:25:17.974Z,37.58
2023-05-23T00:30:21.803Z,38.40
2023-05-23T00:35:26.394Z,36.35
2023-05-23T00:40:31.158Z,34.53
2023-05-23T00:45:37.339Z,34.67
2023-05-23T00:50:41.284Z,36.08
2023-05-23T00:55:46.160Z,33.90
2023-05-23T01:00:54.550Z,30.25
2023-05-23T01:05:58.454Z,27.95
2023-05-23T01:11:05.186Z,27.77
2023-05-23T01:16:16.180Z,24.77
2023-05-23T01:21:26.064Z,21.90
2023-05-23T01:26:58.118Z,23.15
2023-05-23T01:32:11.578Z,23.60
2023-05-23T01:37:19.771Z,24.73
2023-05-23T01:42:21.591Z,23.70
2023-05-23T01:47:26.904Z,23.55
2023-05-23T01:52:31.415Z,22.25
2023-05-23T01:57:37.938Z,23.35
2023-05-23T02:02:39.787Z,24.10
2023-05-23T02:07:46.109Z,23.30
2023-05-23T02:12:47.869Z,25.17
2023-05-23T02:17:49.706Z,23.00
2023-05-23T02:22:51.528Z,24.23
2023-05-23T02:27:56.304Z,23.13
2023-05-23T02:33:01.262Z,25.85
2023-05-23T02:38:03.202Z,22.73
2023-05-23T02:43:05.147Z,20.48
2023-05-23T02:48:07.037Z,18.58
2023-05-23T02:53:13.633Z,20.27
2023-05-23T02:58:16.436Z,18.83
2023-05-23T03:03:23.617Z,16.73
2023-05-23T03:08:25.620Z,17.88
2023-05-23T03:13:28.721Z,16.08
2023-05-23T03:18:30.791Z,16.13
2023-05-23T03:23:32.549Z,15.65
2023-05-23T03:28:34.397Z,16.65
2023-05-23T03:33:40.351Z,17.77
2023-05-23T03:38:42.417Z,19.70
2023-05-23T03:43:44.352Z,19.35
2023-05-23T03:48:49.648Z,18.67
2023-05-23T03:53:51.417Z,18.60
2023-05-23T03:58:55.764Z,18.65
2023-05-23T04:03:58.153Z,16.95
2023-05-23T04:09:02.621Z,14.32
2023-05-23T04:14:06.569Z,14.45
2023-05-23T04:19:12.471Z,17.83
2023-05-23T04:24:16.584Z,13.60
2023-05-23T04:29:18.517Z,13.45
2023-05-23T04:34:23.510Z,12.60
2023-05-23T04:39:25.711Z,13.45
2023-05-23T04:44:50.093Z,10.23
2023-05-23T04:49:57.623Z,10.98
2023-05-23T04:55:01.276Z,10.73
2023-05-23T05:00:10.227Z,8.80
2023-05-23T05:05:12.342Z,9.30
2023-05-23T05:10:17.265Z,8.65
2023-05-23T05:15:21.906Z,6.63
2023-05-23T05:20:28.649Z,6.05
2023-05-23T05:25:34.563Z,6.15
2023-05-23T05:30:39.022Z,5.35
2023-05-23T05:35:43.776Z,5.28
2023-05-23T05:40:48.334Z,5.55
2023-05-23T05:45:51.449Z,4.40
2023-05-23T05:50:56.356Z,4.22
2023-05-23T05:55:58.142Z,3.95
2023-05-23T06:01:02.228Z,4.18
2023-05-23T06:06:06.951Z,4.03
2023-05-23T06:11:08.970Z,4.75
2023-05-23T06:16:10.848Z,4.95
2023-05-23T06:21:12.646Z,6.68
2023-05-23T06:26:14.395Z,7.00
2023-05-23T06:31:18.359Z,6.97
2023-05-23T06:36:24.679Z,7.20
2023-05-23T06:41:27.673Z,6.43
2023-05-23T06:46:32.899Z,5.47
2023-05-23T06:51:36.947Z,5.82
2023-05-23T06:56:42.100Z,6.07
2023-05-23T07:01:46.708Z,6.03
2023-05-23T07:06:50.073Z,5.32
2023-05-23T07:11:54.873Z,4.97
2023-05-23T07:16:56.980Z,4.70
2023-05-23T07:21:59.310Z,3.92
2023-05-23T07:27:04.011Z,4.80
2023-05-23T07:32:08.838Z,4.22
2023-05-23T07:37:15.015Z,4.53
2023-05-23T07:42:19.267Z,4.95
2023-05-23T07:47:24.453Z,4.93
2023-05-23T07:52:29.776Z,5.13
2023-05-23T07:57:34.369Z,4.20
2023-05-23T08:02:39.447Z,4.60
2023-05-23T08:07:41.404Z,4.35
2023-05-23T08:12:46.003Z,3.92
2023-05-23T08:17:56.931Z,3.67
2023-05-23T08:23:02.627Z,3.60
2023-05-23T08:28:04.897Z,3.70
2023-05-23T08:33:35.178Z,3.85
2023-05-23T08:38:37.097Z,4.43
2023-05-23T08:43:50.204Z,4.28
2023-05-23T08:49:01.036Z,4.30
2023-05-23T08:54:13.167Z,4.10
2023-05-23T08:59:15.239Z,3.65
2023-05-23T09:04:18.177Z,4.03
2023-05-23T09:09:34.229Z,4.18
2023-05-23T09:14:41.517Z,5.00
2023-05-23T09:19:47.043Z,5.05
2023-05-23T09:25:00.421Z,4.50
2023-05-23T09:30:08.179Z,3.95
2023-05-23T09:35:14.420Z,5.20
2023-05-23T09:40:19.121Z,4.70
2023-05-23T09:45:34.524Z,4.70
2023-05-23T09:50:39.453Z,4.65
2023-05-23T09:55:41.417Z,4.63
2023-05-23T10:00:46.655Z,5.07
2023-05-23T10:05:53.569Z,4.95
2023-05-23T10:11:13.981Z,5.22
2023-05-23T10:16:24.072Z,3.85
2023-05-23T10:21:33.850Z,4.60
2023-05-23T10:26:36.003Z,3.80
2023-05-23T10:31:38.178Z,4.45
2023-05-23T10:36:59.902Z,4.40
2023-05-23T10:42:12.072Z,3.72
2023-05-23T10:47:28.379Z,4.50
2023-05-23T10:52:40.032Z,4.53
2023-05-23T10:57:43.913Z,4.72
2023-05-23T11:03:09.075Z,3.92
2023-05-23T11:08:16.478Z,4.47
2023-05-23T11:13:23.676Z,3.95
2023-05-23T11:18:29.121Z,4.10
2023-05-23T11:23:41.903Z,3.88
2023-05-23T11:28:59.109Z,4.90
2023-05-23T11:34:06.395Z,4.38
2023-05-23T11:39:11.214Z,4.60
2023-05-23T11:44:15.719Z,4.53
2023-05-23T11:49:18.692Z,3.28
2023-05-23T11:54:24.469Z,4.03
2023-05-23T11:59:30.939Z,4.57
2023-05-23T12:04:37.776Z,4.10
2023-05-23T12:09:44.239Z,3.42
2023-05-23T12:14:46.316Z,4.15
2023-05-23T12:19:48.140Z,4.22
2023-05-23T12:24:50.100Z,4.22
2023-05-23T12:30:07.389Z,4.72
2023-05-23T12:35:16.216Z,4.50
2023-05-23T12:40:19.877Z,4.22
2023-05-23T12:45:25.630Z,4.35
2023-05-23T12:50:27.541Z,4.45
2023-05-23T12:55:33.874Z,4.18
2023-05-23T13:00:35.707Z,4.15
2023-05-23T13:05:39.076Z,4.00
2023-05-23T13:10:41.010Z,4.20
2023-05-23T13:15:46.273Z,3.75
2023-05-23T13:20:49.124Z,3.88
2023-05-23T13:25:51.264Z,5.13
2023-05-23T13:30:53.096Z,3.78
2023-05-23T13:35:57.395Z,4.15
2023-05-23T13:41:01.377Z,3.35
2023-05-23T13:46:05.566Z,3.40
2023-05-23T13:51:07.686Z,3.55
2023-05-23T13:56:10.185Z,3.53
2023-05-23T14:01:12.288Z,3.10
2023-05-23T14:06:16.605Z,2.88
2023-05-23T14:11:18.345Z,4.22
2023-05-23T14:16:22.575Z,3.90
2023-05-23T14:21:24.334Z,3.70
2023-05-23T14:26:29.107Z,3.25
2023-05-23T14:31:32.029Z,3.55
2023-05-23T14:36:35.851Z,3.88
2023-05-23T14:41:39.884Z,3.20
2023-05-23T14:46:48.498Z,3.60
2023-05-23T14:51:51.710Z,3.45
2023-05-23T14:56:56.810Z,3.22
2023-05-23T15:01:58.817Z,3.08
2023-05-23T15:07:01.091Z,3.60
2023-05-23T15:12:09.822Z,3.65
2023-05-23T15:17:20.172Z,3.50
2023-05-23T15:22:36.437Z,3.30
2023-05-23T15:27:44.921Z,2.75
2023-05-23T15:32:47.958Z,3.33
2023-05-23T15:37:49.810Z,4.03
2023-05-23T15:42:53.654Z,3.67
2023-05-23T15:47:57.233Z,3.25
2023-05-23T15:52:59.088Z,3.55
2023-05-23T15:58:03.209Z,4.07
2023-05-23T16:03:05.046Z,3.40
2023-05-23T16:08:06.898Z,3.40
2023-05-23T16:13:09.184Z,3.75
2023-05-23T16:18:15.295Z,4.45
2023-05-23T16:23:19.393Z,3.38
2023-05-23T16:28:21.769Z,3.28
2023-05-23T16:33:23.595Z,3.65
2023-05-23T16:38:25.486Z,3.35
2023-05-23T16:43:27.471Z,3.30
2023-05-23T16:48:29.240Z,3.80
2023-05-23T16:53:31.018Z,3.80
2023-05-23T16:58:38.438Z,3.38
2023-05-23T17:03:41.548Z,3.75
2023-05-23T17:08:48.245Z,3.00
2023-05-23T17:13:50.302Z,3.60
2023-05-23T17:18:52.570Z,3.95
2023-05-23T17:23:56.473Z,4.05
2023-05-23T17:29:00.460Z,3.35
2023-05-23T17:34:02.352Z,3.58
2023-05-23T17:39:07.023Z,3.50
2023-05-23T17:44:08.823Z,4.10
2023-05-23T17:49:10.504Z,4.28
2023-05-23T17:54:12.327Z,3.70
2023-05-23T17:59:15.624Z,3.40
2023-05-23T18:04:22.206Z,3.90
2023-05-23T18:09:26.365Z,3.70
2023-05-23T18:14:30.725Z,4.15
2023-05-23T18:19:32.585Z,4.05
2023-05-23T18:24:34.439Z,4.47
2023-05-23T18:29:38.753Z,4.03
2023-05-23T18:34:40.943Z,3.38
2023-05-23T18:39:42.782Z,5.10
2023-05-23T18:44:44.518Z,5.03
2023-05-23T18:49:46.410Z,4.15
2023-05-23T18:54:54.011Z,5.18
2023-05-23T18:59:58.599Z,5.25
2023-05-23T19:05:02.831Z,5.00
2023-05-23T19:10:09.777Z,5.15
2023-05-23T19:15:13.745Z,5.05
2023-05-23T19:20:20.047Z,5.75
2023-05-23T19:25:22.097Z,5.47
2023-05-23T19:30:24.410Z,6.70
2023-05-23T19:35:26.363Z,6.55
2023-05-23T19:40:28.189Z,6.50
2023-05-23T19:45:33.065Z,6.32
2023-05-23T19:50:37.441Z,6.45
2023-05-23T19:55:39.966Z,6.47
2023-05-23T20:00:42.967Z,7.05
2023-05-23T20:05:45.182Z,7.35
2023-05-23T20:10:47.157Z,6.97
2023-05-23T20:15:51.342Z,7.83
2023-05-23T20:20:53.435Z,7.53
2023-05-23T20:26:02.734Z,6.63
2023-05-23T20:31:07.516Z,7.03
2023-05-23T20:36:09.313Z,6.72
2023-05-23T20:41:11.342Z,7.60
2023-05-23T20:46:15.868Z,7.30
2023-05-23T20:51:19.963Z,7.50
2023-05-23T20:56:22.623Z,7.00
2023-05-23T21:01:26.683Z,7.10
2023-05-23T21:06:28.448Z,7.65
2023-05-23T21:11:32.979Z,7.35
2023-05-23T21:16:34.748Z,6.28
2023-05-23T21:21:38.713Z,8.02
2023-05-23T21:26:45.268Z,8.50
2023-05-23T21:31:50.116Z,7.93
2023-05-23T21:36:53.384Z,7.60
2023-05-23T21:41:58.111Z,7.18
2023-05-23T21:47:02.585Z,7.70
2023-05-23T21:52:07.283Z,7.97
2023-05-23T21:57:09.031Z,7.38
2023-05-23T22:02:11.453Z,7.30
2023-05-23T22:07:15.652Z,8.05
2023-05-23T22:12:19.554Z,7.72
2023-05-23T22:17:26.287Z,7.28
2023-05-23T22:22:30.480Z,7.30
2023-05-23T22:27:32.633Z,8.05
2023-05-23T22:32:34.356Z,7.38
2023-05-23T22:37:36.218Z,7.40
2023-05-23T22:42:40.424Z,6.50
2023-05-23T22:47:48.381Z,6.53
2023-05-23T22:52:50.706Z,8.35
2023-05-23T22:57:52.511Z,6.72
2023-05-23T23:02:54.540Z,6.55
2023-05-23T23:07:56.281Z,7.17
2023-05-23T23:13:00.324Z,8.05
2023-05-23T23:18:05.926Z,7.60
2023-05-23T23:23:07.809Z,6.83
2023-05-23T23:28:09.601Z,8.13
2023-05-23T23:33:11.776Z,7.53
2023-05-23T23:38:13.532Z,6.63
2023-05-23T23:43:17.878Z,6.80
2023-05-23T23:48:19.776Z,6.37
2023-05-23T23:53:30.103Z,7.17
2023-05-23T23:58:36.582Z,7.40
